Terminal Aerodrome Forecast
Issued by NWS Nashville, TN

Home | Current Version | Previous Version | Text Only | Print | Product List | Glossary On
Versions: 1 2 3 4 5 6 7 8 9 10 11 12 13 14 15 16 17
963
FTUS44 KOHX 222320
TAFBNA
TAF
KBNA 222320Z 2300/2324 14009KT P6SM VCSH SCT060 BKN170
     FM230800 20008KT 5SM SHRA OVC025
     FM231200 28006KT 5SM -SHRA OVC007
     FM231800 27008KT P6SM OVC020
     FM232200 27008KT P6SM BKN070=

USA.gov is the U.S. government's official web portal to all federal, state and local government web resources and services.